sensor_id;sensor_type;location;lat;lon;timestamp;temperature;humidity
7240;DHT22;3661;53.288;10.458;2022-09-03T00:00:14;14.80;94.80
7240;DHT22;3661;53.288;10.458;2022-09-03T00:02:50;14.70;94.90
7240;DHT22;3661;53.288;10.458;2022-09-03T00:05:31;14.60;95.00
7240;DHT22;3661;53.288;10.458;2022-09-03T00:08:09;14.60;95.10
7240;DHT22;3661;53.288;10.458;2022-09-03T00:10:47;14.50;95.20
7240;DHT22;3661;53.288;10.458;2022-09-03T00:13:24;14.50;95.30
7240;DHT22;3661;53.288;10.458;2022-09-03T00:15:59;14.50;95.40
7240;DHT22;3661;53.288;10.458;2022-09-03T00:18:34;14.50;95.60
7240;DHT22;3661;53.288;10.458;2022-09-03T00:21:11;14.50;95.60
7240;DHT22;3661;53.288;10.458;2022-09-03T00:23:46;14.40;95.60
7240;DHT22;3661;53.288;10.458;2022-09-03T00:26:26;14.40;95.70
7240;DHT22;3661;53.288;10.458;2022-09-03T00:29:04;14.40;95.80
7240;DHT22;3661;53.288;10.458;2022-09-03T00:31:41;14.40;95.80
7240;DHT22;3661;53.288;10.458;2022-09-03T00:34:20;14.30;95.80
7240;DHT22;3661;53.288;10.458;2022-09-03T00:36:56;14.30;95.90
7240;DHT22;3661;53.288;10.458;2022-09-03T00:39:28;14.30;95.90
7240;DHT22;3661;53.288;10.458;2022-09-03T00:42:10;14.30;96.00
7240;DHT22;3661;53.288;10.458;2022-09-03T00:44:57;14.20;96.10
7240;DHT22;3661;53.288;10.458;2022-09-03T00:47:38;14.20;96.20
7240;DHT22;3661;53.288;10.458;2022-09-03T00:50:16;14.20;96.20
7240;DHT22;3661;53.288;10.458;2022-09-03T00:52:59;14.20;96.30
7240;DHT22;3661;53.288;10.458;2022-09-03T00:55:41;14.20;96.40
7240;DHT22;3661;53.288;10.458;2022-09-03T00:58:29;14.10;96.50
7240;DHT22;3661;53.288;10.458;2022-09-03T01:01:07;14.10;96.60
7240;DHT22;3661;53.288;10.458;2022-09-03T01:03:46;14.10;96.60
7240;DHT22;3661;53.288;10.458;2022-09-03T01:06:29;14.10;96.70
7240;DHT22;3661;53.288;10.458;2022-09-03T01:09:11;14.10;96.70
7240;DHT22;3661;53.288;10.458;2022-09-03T01:11:58;14.00;96.70
7240;DHT22;3661;53.288;10.458;2022-09-03T01:14:40;14.00;96.80
7240;DHT22;3661;53.288;10.458;2022-09-03T01:17:21;14.00;96.80
7240;DHT22;3661;53.288;10.458;2022-09-03T01:20:07;14.00;96.80
7240;DHT22;3661;53.288;10.458;2022-09-03T01:26:02;13.90;97.30
7240;DHT22;3661;53.288;10.458;2022-09-03T01:28:48;13.90;97.10
7240;DHT22;3661;53.288;10.458;2022-09-03T01:31:29;13.90;97.10
7240;DHT22;3661;53.288;10.458;2022-09-03T01:34:17;13.80;97.20
7240;DHT22;3661;53.288;10.458;2022-09-03T01:37:01;13.80;97.40
7240;DHT22;3661;53.288;10.458;2022-09-03T01:39:45;13.80;97.40
7240;DHT22;3661;53.288;10.458;2022-09-03T01:42:28;13.80;97.60
7240;DHT22;3661;53.288;10.458;2022-09-03T01:45:17;13.70;97.60
7240;DHT22;3661;53.288;10.458;2022-09-03T01:48:03;13.70;97.70
7240;DHT22;3661;53.288;10.458;2022-09-03T01:50:43;13.60;97.80
7240;DHT22;3661;53.288;10.458;2022-09-03T01:53:27;13.60;97.90
7240;DHT22;3661;53.288;10.458;2022-09-03T01:56:14;13.60;98.10
7240;DHT22;3661;53.288;10.458;2022-09-03T01:58:55;13.50;98.10
7240;DHT22;3661;53.288;10.458;2022-09-03T02:01:38;13.50;98.30
7240;DHT22;3661;53.288;10.458;2022-09-03T02:04:16;13.40;98.30
7240;DHT22;3661;53.288;10.458;2022-09-03T02:06:50;13.40;98.40
7240;DHT22;3661;53.288;10.458;2022-09-03T02:09:23;13.40;98.50
7240;DHT22;3661;53.288;10.458;2022-09-03T02:12:02;13.30;98.60
7240;DHT22;3661;53.288;10.458;2022-09-03T02:14:35;13.30;98.80
7240;DHT22;3661;53.288;10.458;2022-09-03T02:17:09;13.20;98.80
7240;DHT22;3661;53.288;10.458;2022-09-03T02:19:42;13.20;99.10
7240;DHT22;3661;53.288;10.458;2022-09-03T02:22:15;13.10;99.20
7240;DHT22;3661;53.288;10.458;2022-09-03T02:24:48;13.10;99.40
7240;DHT22;3661;53.288;10.458;2022-09-03T02:27:20;13.10;99.50
7240;DHT22;3661;53.288;10.458;2022-09-03T02:29:53;13.00;99.50
7240;DHT22;3661;53.288;10.458;2022-09-03T02:32:27;13.00;99.60
7240;DHT22;3661;53.288;10.458;2022-09-03T02:34:59;12.90;99.70
7240;DHT22;3661;53.288;10.458;2022-09-03T02:37:31;12.90;99.90
7240;DHT22;3661;53.288;10.458;2022-09-03T02:40:04;12.90;99.90
7240;DHT22;3661;53.288;10.458;2022-09-03T02:42:39;12.80;99.90
7240;DHT22;3661;53.288;10.458;2022-09-03T02:45:19;12.80;99.90
7240;DHT22;3661;53.288;10.458;2022-09-03T02:47:54;12.70;99.90
7240;DHT22;3661;53.288;10.458;2022-09-03T02:50:26;12.70;99.90
7240;DHT22;3661;53.288;10.458;2022-09-03T02:52:59;12.70;99.90
7240;DHT22;3661;53.288;10.458;2022-09-03T02:55:32;12.60;99.90
7240;DHT22;3661;53.288;10.458;2022-09-03T02:58:04;12.60;99.90
7240;DHT22;3661;53.288;10.458;2022-09-03T03:00:38;12.60;99.90
7240;DHT22;3661;53.288;10.458;2022-09-03T03:03:11;12.50;99.90
7240;DHT22;3661;53.288;10.458;2022-09-03T03:05:46;12.50;99.90
7240;DHT22;3661;53.288;10.458;2022-09-03T03:08:19;12.50;99.90
7240;DHT22;3661;53.288;10.458;2022-09-03T03:10:55;12.40;99.90
7240;DHT22;3661;53.288;10.458;2022-09-03T03:13:30;12.40;99.90
7240;DHT22;3661;53.288;10.458;2022-09-03T03:16:05;12.40;99.90
7240;DHT22;3661;53.288;10.458;2022-09-03T03:18:38;12.30;99.90
7240;DHT22;3661;53.288;10.458;2022-09-03T03:21:12;12.30;99.90
7240;DHT22;3661;53.288;10.458;2022-09-03T03:23:45;12.30;99.90
7240;DHT22;3661;53.288;10.458;2022-09-03T03:26:19;12.20;99.90
7240;DHT22;3661;53.288;10.458;2022-09-03T03:28:56;12.20;99.90
7240;DHT22;3661;53.288;10.458;2022-09-03T03:31:28;12.20;99.90
7240;DHT22;3661;53.288;10.458;2022-09-03T03:34:02;12.10;99.90
7240;DHT22;3661;53.288;10.458;2022-09-03T03:36:35;12.10;99.90
7240;DHT22;3661;53.288;10.458;2022-09-03T03:39:07;12.10;99.90
7240;DHT22;3661;53.288;10.458;2022-09-03T03:41:39;12.10;99.90
7240;DHT22;3661;53.288;10.458;2022-09-03T03:44:11;12.00;99.90
7240;DHT22;3661;53.288;10.458;2022-09-03T03:46:43;12.00;99.90
7240;DHT22;3661;53.288;10.458;2022-09-03T03:49:17;12.00;99.90
7240;DHT22;3661;53.288;10.458;2022-09-03T03:51:49;11.90;99.90
7240;DHT22;3661;53.288;10.458;2022-09-03T03:54:21;11.90;99.90
7240;DHT22;3661;53.288;10.458;2022-09-03T03:56:54;11.90;99.90
7240;DHT22;3661;53.288;10.458;2022-09-03T04:02:39;11.80;99.90
7240;DHT22;3661;53.288;10.458;2022-09-03T04:05:13;11.80;99.90
7240;DHT22;3661;53.288;10.458;2022-09-03T04:07:45;11.80;99.90
7240;DHT22;3661;53.288;10.458;2022-09-03T04:10:17;11.70;99.90
7240;DHT22;3661;53.288;10.458;2022-09-03T04:12:53;11.70;99.90
7240;DHT22;3661;53.288;10.458;2022-09-03T04:15:28;11.70;99.90
7240;DHT22;3661;53.288;10.458;2022-09-03T04:18:00;11.70;99.90
7240;DHT22;3661;53.288;10.458;2022-09-03T04:20:34;11.60;99.90
7240;DHT22;3661;53.288;10.458;2022-09-03T04:23:07;11.60;99.90
7240;DHT22;3661;53.288;10.458;2022-09-03T04:25:39;11.60;99.90
7240;DHT22;3661;53.288;10.458;2022-09-03T04:28:11;11.60;99.90
7240;DHT22;3661;53.288;10.458;2022-09-03T04:30:44;11.50;99.90
7240;DHT22;3661;53.288;10.458;2022-09-03T04:33:16;11.50;99.90
7240;DHT22;3661;53.288;10.458;2022-09-03T04:35:50;11.40;99.90
7240;DHT22;3661;53.288;10.458;2022-09-03T04:38:22;11.40;99.90
7240;DHT22;3661;53.288;10.458;2022-09-03T04:40:54;11.40;99.90
7240;DHT22;3661;53.288;10.458;2022-09-03T04:43:26;11.30;99.90
7240;DHT22;3661;53.288;10.458;2022-09-03T04:45:59;11.30;99.90
7240;DHT22;3661;53.288;10.458;2022-09-03T04:48:32;11.20;99.90
7240;DHT22;3661;53.288;10.458;2022-09-03T04:51:08;11.20;99.90
7240;DHT22;3661;53.288;10.458;2022-09-03T04:53:42;11.20;99.90
7240;DHT22;3661;53.288;10.458;2022-09-03T04:56:16;11.20;99.90
7240;DHT22;3661;53.288;10.458;2022-09-03T04:58:54;11.20;99.90
7240;DHT22;3661;53.288;10.458;2022-09-03T05:01:27;11.20;99.90
7240;DHT22;3661;53.288;10.458;2022-09-03T05:04:01;11.10;99.90
7240;DHT22;3661;53.288;10.458;2022-09-03T05:06:36;11.10;99.90
7240;DHT22;3661;53.288;10.458;2022-09-03T05:09:08;11.10;99.90
7240;DHT22;3661;53.288;10.458;2022-09-03T05:11:40;11.10;99.90
7240;DHT22;3661;53.288;10.458;2022-09-03T05:14:12;11.10;99.90
7240;DHT22;3661;53.288;10.458;2022-09-03T05:16:44;11.20;99.90
7240;DHT22;3661;53.288;10.458;2022-09-03T05:19:16;11.20;99.90
7240;DHT22;3661;53.288;10.458;2022-09-03T05:21:50;11.20;99.90
7240;DHT22;3661;53.288;10.458;2022-09-03T05:24:22;11.20;99.90
7240;DHT22;3661;53.288;10.458;2022-09-03T05:26:55;11.20;99.90
7240;DHT22;3661;53.288;10.458;2022-09-03T05:29:27;11.20;99.90
7240;DHT22;3661;53.288;10.458;2022-09-03T05:31:59;11.20;99.90
7240;DHT22;3661;53.288;10.458;2022-09-03T05:34:32;11.20;99.90
7240;DHT22;3661;53.288;10.458;2022-09-03T05:37:06;11.20;99.90
7240;DHT22;3661;53.288;10.458;2022-09-03T05:39:38;11.20;99.90
7240;DHT22;3661;53.288;10.458;2022-09-03T05:42:10;11.30;99.90
7240;DHT22;3661;53.288;10.458;2022-09-03T05:44:43;11.30;99.90
7240;DHT22;3661;53.288;10.458;2022-09-03T05:47:16;11.40;99.90
7240;DHT22;3661;53.288;10.458;2022-09-03T05:49:48;11.40;99.90
7240;DHT22;3661;53.288;10.458;2022-09-03T05:52:22;11.50;99.90
7240;DHT22;3661;53.288;10.458;2022-09-03T05:54:54;11.50;99.90
7240;DHT22;3661;53.288;10.458;2022-09-03T05:57:26;11.60;99.90
7240;DHT22;3661;53.288;10.458;2022-09-03T05:59:59;11.60;99.90
7240;DHT22;3661;53.288;10.458;2022-09-03T06:02:31;11.70;99.90
7240;DHT22;3661;53.288;10.458;2022-09-03T06:05:04;11.70;99.90
7240;DHT22;3661;53.288;10.458;2022-09-03T06:07:39;11.80;99.90
7240;DHT22;3661;53.288;10.458;2022-09-03T06:10:11;11.80;99.90
7240;DHT22;3661;53.288;10.458;2022-09-03T06:12:50;11.80;99.90
7240;DHT22;3661;53.288;10.458;2022-09-03T06:15:22;11.90;99.90
7240;DHT22;3661;53.288;10.458;2022-09-03T06:17:54;12.00;99.90
7240;DHT22;3661;53.288;10.458;2022-09-03T06:20:27;12.00;99.90
7240;DHT22;3661;53.288;10.458;2022-09-03T06:23:03;12.10;99.90
7240;DHT22;3661;53.288;10.458;2022-09-03T06:25:35;12.10;99.90
7240;DHT22;3661;53.288;10.458;2022-09-03T06:28:07;12.20;99.90
7240;DHT22;3661;53.288;10.458;2022-09-03T06:30:40;12.30;99.90
7240;DHT22;3661;53.288;10.458;2022-09-03T06:33:12;12.30;99.90
7240;DHT22;3661;53.288;10.458;2022-09-03T06:35:44;12.40;99.90
7240;DHT22;3661;53.288;10.458;2022-09-03T06:38:18;12.50;99.90
7240;DHT22;3661;53.288;10.458;2022-09-03T06:40:54;12.60;99.90
7240;DHT22;3661;53.288;10.458;2022-09-03T06:43:28;12.70;99.90
7240;DHT22;3661;53.288;10.458;2022-09-03T06:49:07;12.80;99.90
7240;DHT22;3661;53.288;10.458;2022-09-03T06:51:40;12.90;99.90
7240;DHT22;3661;53.288;10.458;2022-09-03T06:54:14;13.00;99.90
7240;DHT22;3661;53.288;10.458;2022-09-03T06:56:46;13.10;99.90
7240;DHT22;3661;53.288;10.458;2022-09-03T06:59:18;13.20;99.90
7240;DHT22;3661;53.288;10.458;2022-09-03T07:01:51;13.30;99.90
7240;DHT22;3661;53.288;10.458;2022-09-03T07:04:23;13.40;99.90
7240;DHT22;3661;53.288;10.458;2022-09-03T07:06:57;13.50;99.90
7240;DHT22;3661;53.288;10.458;2022-09-03T07:09:30;13.60;99.90
7240;DHT22;3661;53.288;10.458;2022-09-03T07:12:08;13.70;99.90
7240;DHT22;3661;53.288;10.458;2022-09-03T07:14:40;13.80;99.90
7240;DHT22;3661;53.288;10.458;2022-09-03T07:17:12;13.90;99.90
7240;DHT22;3661;53.288;10.458;2022-09-03T07:19:44;14.00;99.90
7240;DHT22;3661;53.288;10.458;2022-09-03T07:22:17;14.10;99.90
7240;DHT22;3661;53.288;10.458;2022-09-03T07:24:50;14.20;99.90
7240;DHT22;3661;53.288;10.458;2022-09-03T07:27:22;14.20;99.90
7240;DHT22;3661;53.288;10.458;2022-09-03T07:29:56;14.40;99.90
7240;DHT22;3661;53.288;10.458;2022-09-03T07:32:28;14.50;99.90
7240;DHT22;3661;53.288;10.458;2022-09-03T07:35:00;14.60;99.90
7240;DHT22;3661;53.288;10.458;2022-09-03T07:37:32;14.70;99.90
7240;DHT22;3661;53.288;10.458;2022-09-03T07:40:07;14.80;99.90
7240;DHT22;3661;53.288;10.458;2022-09-03T07:42:40;14.90;99.90
7240;DHT22;3661;53.288;10.458;2022-09-03T07:45:12;15.00;99.90
7240;DHT22;3661;53.288;10.458;2022-09-03T07:47:48;15.10;99.90
7240;DHT22;3661;53.288;10.458;2022-09-03T07:50:20;15.10;99.90
7240;DHT22;3661;53.288;10.458;2022-09-03T07:52:55;15.20;99.90
7240;DHT22;3661;53.288;10.458;2022-09-03T07:55:30;15.30;99.90
7240;DHT22;3661;53.288;10.458;2022-09-03T07:58:03;15.40;99.90
7240;DHT22;3661;53.288;10.458;2022-09-03T08:00:35;15.50;99.90
7240;DHT22;3661;53.288;10.458;2022-09-03T08:03:08;15.60;99.90
7240;DHT22;3661;53.288;10.458;2022-09-03T08:05:41;15.80;99.90
7240;DHT22;3661;53.288;10.458;2022-09-03T08:08:13;15.90;99.90
7240;DHT22;3661;53.288;10.458;2022-09-03T08:10:48;16.00;99.90
7240;DHT22;3661;53.288;10.458;2022-09-03T08:13:21;16.20;99.90
7240;DHT22;3661;53.288;10.458;2022-09-03T08:16:00;16.40;99.90
7240;DHT22;3661;53.288;10.458;2022-09-03T08:18:33;16.50;99.90
7240;DHT22;3661;53.288;10.458;2022-09-03T08:21:09;16.70;99.90
7240;DHT22;3661;53.288;10.458;2022-09-03T08:23:44;17.00;99.90
7240;DHT22;3661;53.288;10.458;2022-09-03T08:26:20;17.20;99.90
7240;DHT22;3661;53.288;10.458;2022-09-03T08:28:52;17.40;99.90
7240;DHT22;3661;53.288;10.458;2022-09-03T08:31:25;17.60;99.90
7240;DHT22;3661;53.288;10.458;2022-09-03T08:33:59;17.80;99.90
7240;DHT22;3661;53.288;10.458;2022-09-03T08:36:37;18.00;99.90
7240;DHT22;3661;53.288;10.458;2022-09-03T08:39:11;18.20;99.50
7240;DHT22;3661;53.288;10.458;2022-09-03T08:42:09;18.50;99.90
7240;DHT22;3661;53.288;10.458;2022-09-03T08:44:45;18.70;99.80
7240;DHT22;3661;53.288;10.458;2022-09-03T08:47:26;18.90;98.20
7240;DHT22;3661;53.288;10.458;2022-09-03T08:50:03;19.10;97.20
7240;DHT22;3661;53.288;10.458;2022-09-03T08:52:43;19.20;96.50
7240;DHT22;3661;53.288;10.458;2022-09-03T08:55:24;19.40;95.70
7240;DHT22;3661;53.288;10.458;2022-09-03T08:58:02;19.50;96.30
7240;DHT22;3661;53.288;10.458;2022-09-03T09:00:41;19.70;95.50
7240;DHT22;3661;53.288;10.458;2022-09-03T09:03:40;19.90;95.00
7240;DHT22;3661;53.288;10.458;2022-09-03T09:06:20;20.10;96.40
7240;DHT22;3661;53.288;10.458;2022-09-03T09:09:08;20.50;97.80
7240;DHT22;3661;53.288;10.458;2022-09-03T09:11:48;20.60;96.60
7240;DHT22;3661;53.288;10.458;2022-09-03T09:14:28;20.90;94.40
7240;DHT22;3661;53.288;10.458;2022-09-03T09:17:28;21.00;93.90
7240;DHT22;3661;53.288;10.458;2022-09-03T09:20:11;21.10;93.00
7240;DHT22;3661;53.288;10.458;2022-09-03T09:22:49;21.40;94.60
7240;DHT22;3661;53.288;10.458;2022-09-03T09:25:23;21.60;93.10
7240;DHT22;3661;53.288;10.458;2022-09-03T09:27:59;21.80;95.20
7240;DHT22;3661;53.288;10.458;2022-09-03T09:30:33;22.10;92.60
7240;DHT22;3661;53.288;10.458;2022-09-03T09:33:05;22.20;92.60
7240;DHT22;3661;53.288;10.458;2022-09-03T09:35:37;22.40;92.00
7240;DHT22;3661;53.288;10.458;2022-09-03T09:38:12;22.60;93.70
7240;DHT22;3661;53.288;10.458;2022-09-03T09:40:44;22.70;91.00
7240;DHT22;3661;53.288;10.458;2022-09-03T09:43:18;22.80;91.30
7240;DHT22;3661;53.288;10.458;2022-09-03T09:45:53;22.90;92.80
7240;DHT22;3661;53.288;10.458;2022-09-03T09:48:26;23.30;94.40
7240;DHT22;3661;53.288;10.458;2022-09-03T09:51:05;23.50;92.50
7240;DHT22;3661;53.288;10.458;2022-09-03T09:53:38;23.70;94.20
7240;DHT22;3661;53.288;10.458;2022-09-03T09:56:20;24.10;95.40
7240;DHT22;3661;53.288;10.458;2022-09-03T09:59:02;24.40;95.00
7240;DHT22;3661;53.288;10.458;2022-09-03T10:01:37;24.70;94.80
7240;DHT22;3661;53.288;10.458;2022-09-03T10:04:11;24.90;92.80
7240;DHT22;3661;53.288;10.458;2022-09-03T10:06:44;25.10;90.90
7240;DHT22;3661;53.288;10.458;2022-09-03T10:09:27;25.20;91.50
7240;DHT22;3661;53.288;10.458;2022-09-03T10:12:11;25.30;90.70
7240;DHT22;3661;53.288;10.458;2022-09-03T10:14:48;25.40;91.50
7240;DHT22;3661;53.288;10.458;2022-09-03T10:17:28;25.50;90.80
7240;DHT22;3661;53.288;10.458;2022-09-03T10:20:08;25.60;87.50
7240;DHT22;3661;53.288;10.458;2022-09-03T10:23:10;25.60;84.20
7240;DHT22;3661;53.288;10.458;2022-09-03T10:25:56;25.60;87.30
7240;DHT22;3661;53.288;10.458;2022-09-03T10:28:36;25.70;85.20
7240;DHT22;3661;53.288;10.458;2022-09-03T10:31:28;25.80;83.00
7240;DHT22;3661;53.288;10.458;2022-09-03T10:34:12;25.90;86.20
7240;DHT22;3661;53.288;10.458;2022-09-03T10:37:00;26.10;90.20
7240;DHT22;3661;53.288;10.458;2022-09-03T10:39:50;26.50;90.90
7240;DHT22;3661;53.288;10.458;2022-09-03T10:42:34;26.80;84.80
7240;DHT22;3661;53.288;10.458;2022-09-03T10:45:20;27.00;87.10
7240;DHT22;3661;53.288;10.458;2022-09-03T10:50:56;27.10;85.10
7240;DHT22;3661;53.288;10.458;2022-09-03T10:53:39;27.20;84.20
7240;DHT22;3661;53.288;10.458;2022-09-03T10:56:20;27.20;78.30
7240;DHT22;3661;53.288;10.458;2022-09-03T10:59:01;27.10;77.30
7240;DHT22;3661;53.288;10.458;2022-09-03T11:01:45;26.90;77.00
7240;DHT22;3661;53.288;10.458;2022-09-03T11:04:27;26.70;77.60
7240;DHT22;3661;53.288;10.458;2022-09-03T11:07:04;26.70;81.50
7240;DHT22;3661;53.288;10.458;2022-09-03T11:09:40;26.60;76.50
7240;DHT22;3661;53.288;10.458;2022-09-03T11:12:17;26.40;75.50
7240;DHT22;3661;53.288;10.458;2022-09-03T11:14:56;26.40;75.40
7240;DHT22;3661;53.288;10.458;2022-09-03T11:17:37;26.10;73.60
7240;DHT22;3661;53.288;10.458;2022-09-03T11:20:16;26.00;75.90
7240;DHT22;3661;53.288;10.458;2022-09-03T11:22:54;26.00;75.80
7240;DHT22;3661;53.288;10.458;2022-09-03T11:25:32;25.90;73.80
7240;DHT22;3661;53.288;10.458;2022-09-03T11:28:13;25.80;74.40
7240;DHT22;3661;53.288;10.458;2022-09-03T11:31:15;25.80;74.20
7240;DHT22;3661;53.288;10.458;2022-09-03T11:33:52;25.80;73.50
7240;DHT22;3661;53.288;10.458;2022-09-03T11:36:30;25.70;73.80
7240;DHT22;3661;53.288;10.458;2022-09-03T11:39:18;25.60;72.90
7240;DHT22;3661;53.288;10.458;2022-09-03T11:41:58;25.50;74.20
7240;DHT22;3661;53.288;10.458;2022-09-03T11:44:39;25.50;74.30
7240;DHT22;3661;53.288;10.458;2022-09-03T11:47:16;25.60;74.20
7240;DHT22;3661;53.288;10.458;2022-09-03T11:50:04;25.80;74.40
7240;DHT22;3661;53.288;10.458;2022-09-03T11:52:37;25.80;72.80
7240;DHT22;3661;53.288;10.458;2022-09-03T11:55:11;25.90;71.90
7240;DHT22;3661;53.288;10.458;2022-09-03T11:57:43;25.90;73.20
7240;DHT22;3661;53.288;10.458;2022-09-03T12:00:18;25.90;72.60
7240;DHT22;3661;53.288;10.458;2022-09-03T12:02:55;26.10;75.90
7240;DHT22;3661;53.288;10.458;2022-09-03T12:05:35;26.30;72.40
7240;DHT22;3661;53.288;10.458;2022-09-03T12:11:45;26.40;69.90
7240;DHT22;3661;53.288;10.458;2022-09-03T12:14:23;26.40;70.00
7240;DHT22;3661;53.288;10.458;2022-09-03T12:17:14;26.50;72.40
7240;DHT22;3661;53.288;10.458;2022-09-03T12:19:50;26.70;72.40
7240;DHT22;3661;53.288;10.458;2022-09-03T12:22:25;26.80;71.70
7240;DHT22;3661;53.288;10.458;2022-09-03T12:25:07;26.90;69.50
7240;DHT22;3661;53.288;10.458;2022-09-03T12:27:43;26.90;71.50
7240;DHT22;3661;53.288;10.458;2022-09-03T12:30:17;26.90;70.40
7240;DHT22;3661;53.288;10.458;2022-09-03T12:33:02;26.80;67.80
7240;DHT22;3661;53.288;10.458;2022-09-03T12:35:35;26.60;68.70
7240;DHT22;3661;53.288;10.458;2022-09-03T12:38:07;26.50;69.20
7240;DHT22;3661;53.288;10.458;2022-09-03T12:40:42;26.50;69.80
7240;DHT22;3661;53.288;10.458;2022-09-03T12:43:16;26.60;69.50
7240;DHT22;3661;53.288;10.458;2022-09-03T12:45:49;26.50;69.00
7240;DHT22;3661;53.288;10.458;2022-09-03T12:48:21;26.30;67.00
7240;DHT22;3661;53.288;10.458;2022-09-03T12:51:02;26.20;67.20
7240;DHT22;3661;53.288;10.458;2022-09-03T12:53:35;26.10;68.20
7240;DHT22;3661;53.288;10.458;2022-09-03T12:56:08;26.00;68.10
7240;DHT22;3661;53.288;10.458;2022-09-03T12:58:49;25.80;68.40
7240;DHT22;3661;53.288;10.458;2022-09-03T13:01:27;25.70;69.00
7240;DHT22;3661;53.288;10.458;2022-09-03T13:04:04;25.70;69.20
7240;DHT22;3661;53.288;10.458;2022-09-03T13:06:45;25.60;69.40
7240;DHT22;3661;53.288;10.458;2022-09-03T13:09:22;25.50;69.10
7240;DHT22;3661;53.288;10.458;2022-09-03T13:11:56;25.50;69.40
7240;DHT22;3661;53.288;10.458;2022-09-03T13:14:41;25.40;68.10
7240;DHT22;3661;53.288;10.458;2022-09-03T13:17:28;25.30;68.90
7240;DHT22;3661;53.288;10.458;2022-09-03T13:20:23;25.30;70.20
7240;DHT22;3661;53.288;10.458;2022-09-03T13:23:09;25.40;69.40
7240;DHT22;3661;53.288;10.458;2022-09-03T13:25:53;25.40;69.80
7240;DHT22;3661;53.288;10.458;2022-09-03T13:28:36;25.40;68.30
7240;DHT22;3661;53.288;10.458;2022-09-03T13:31:23;25.30;68.50
7240;DHT22;3661;53.288;10.458;2022-09-03T13:34:00;25.30;68.10
7240;DHT22;3661;53.288;10.458;2022-09-03T13:36:42;25.30;69.30
7240;DHT22;3661;53.288;10.458;2022-09-03T13:39:21;25.30;68.20
7240;DHT22;3661;53.288;10.458;2022-09-03T13:42:01;25.20;69.10
7240;DHT22;3661;53.288;10.458;2022-09-03T13:44:41;25.30;69.40
7240;DHT22;3661;53.288;10.458;2022-09-03T13:47:24;25.30;69.00
7240;DHT22;3661;53.288;10.458;2022-09-03T13:50:02;25.30;67.90
7240;DHT22;3661;53.288;10.458;2022-09-03T13:52:55;25.30;68.60
7240;DHT22;3661;53.288;10.458;2022-09-03T13:55:34;25.30;68.00
7240;DHT22;3661;53.288;10.458;2022-09-03T13:58:17;25.30;68.10
7240;DHT22;3661;53.288;10.458;2022-09-03T14:00:53;25.30;67.10
7240;DHT22;3661;53.288;10.458;2022-09-03T14:03:42;25.30;68.00
7240;DHT22;3661;53.288;10.458;2022-09-03T14:06:25;25.40;67.70
7240;DHT22;3661;53.288;10.458;2022-09-03T14:09:08;25.50;67.20
7240;DHT22;3661;53.288;10.458;2022-09-03T14:11:53;25.50;67.00
7240;DHT22;3661;53.288;10.458;2022-09-03T14:14:36;25.50;67.00
7240;DHT22;3661;53.288;10.458;2022-09-03T14:17:15;25.50;68.10
7240;DHT22;3661;53.288;10.458;2022-09-03T14:19:57;25.60;67.50
7240;DHT22;3661;53.288;10.458;2022-09-03T14:22:42;25.60;67.20
7240;DHT22;3661;53.288;10.458;2022-09-03T14:25:20;25.60;67.10
7240;DHT22;3661;53.288;10.458;2022-09-03T14:27:53;25.70;67.10
7240;DHT22;3661;53.288;10.458;2022-09-03T14:30:36;25.70;67.70
7240;DHT22;3661;53.288;10.458;2022-09-03T14:33:18;25.80;67.70
7240;DHT22;3661;53.288;10.458;2022-09-03T14:36:06;25.80;66.80
7240;DHT22;3661;53.288;10.458;2022-09-03T14:39:04;25.80;67.30
7240;DHT22;3661;53.288;10.458;2022-09-03T14:42:03;25.80;65.90
7240;DHT22;3661;53.288;10.458;2022-09-03T14:44:53;25.80;66.80
7240;DHT22;3661;53.288;10.458;2022-09-03T14:47:38;25.80;67.00
7240;DHT22;3661;53.288;10.458;2022-09-03T14:50:26;25.80;67.50
7240;DHT22;3661;53.288;10.458;2022-09-03T14:53:13;25.90;67.40
7240;DHT22;3661;53.288;10.458;2022-09-03T14:55:57;26.00;66.70
7240;DHT22;3661;53.288;10.458;2022-09-03T15:01:28;25.90;65.70
7240;DHT22;3661;53.288;10.458;2022-09-03T15:04:44;25.80;66.40
7240;DHT22;3661;53.288;10.458;2022-09-03T15:07:28;25.80;66.10
7240;DHT22;3661;53.288;10.458;2022-09-03T15:10:12;25.70;66.70
7240;DHT22;3661;53.288;10.458;2022-09-03T15:12:50;25.70;66.80
7240;DHT22;3661;53.288;10.458;2022-09-03T15:15:29;25.70;66.80
7240;DHT22;3661;53.288;10.458;2022-09-03T15:18:14;25.70;67.00
7240;DHT22;3661;53.288;10.458;2022-09-03T15:20:49;25.80;66.70
7240;DHT22;3661;53.288;10.458;2022-09-03T15:23:31;25.80;66.40
7240;DHT22;3661;53.288;10.458;2022-09-03T15:26:24;25.80;66.20
7240;DHT22;3661;53.288;10.458;2022-09-03T15:29:28;25.80;65.90
7240;DHT22;3661;53.288;10.458;2022-09-03T15:32:16;25.80;66.40
7240;DHT22;3661;53.288;10.458;2022-09-03T15:35:04;25.90;66.90
7240;DHT22;3661;53.288;10.458;2022-09-03T15:37:43;26.00;66.20
7240;DHT22;3661;53.288;10.458;2022-09-03T15:40:24;25.90;66.20
7240;DHT22;3661;53.288;10.458;2022-09-03T15:43:05;25.90;66.10
7240;DHT22;3661;53.288;10.458;2022-09-03T15:45:50;26.00;66.30
7240;DHT22;3661;53.288;10.458;2022-09-03T15:48:32;26.00;66.30
7240;DHT22;3661;53.288;10.458;2022-09-03T15:51:14;26.10;66.00
7240;DHT22;3661;53.288;10.458;2022-09-03T15:53:51;26.10;65.50
7240;DHT22;3661;53.288;10.458;2022-09-03T15:56:29;26.10;65.30
7240;DHT22;3661;53.288;10.458;2022-09-03T15:59:13;26.10;65.30
7240;DHT22;3661;53.288;10.458;2022-09-03T16:01:51;26.00;65.30
7240;DHT22;3661;53.288;10.458;2022-09-03T16:04:47;26.00;65.40
7240;DHT22;3661;53.288;10.458;2022-09-03T16:07:26;25.90;65.50
7240;DHT22;3661;53.288;10.458;2022-09-03T16:10:07;25.80;65.90
7240;DHT22;3661;53.288;10.458;2022-09-03T16:12:51;25.80;66.30
7240;DHT22;3661;53.288;10.458;2022-09-03T16:15:37;25.70;66.30
7240;DHT22;3661;53.288;10.458;2022-09-03T16:18:19;25.60;66.40
7240;DHT22;3661;53.288;10.458;2022-09-03T16:20:56;25.50;66.70
7240;DHT22;3661;53.288;10.458;2022-09-03T16:23:36;25.40;66.60
7240;DHT22;3661;53.288;10.458;2022-09-03T16:26:17;25.20;66.90
7240;DHT22;3661;53.288;10.458;2022-09-03T16:28:53;25.10;66.70
7240;DHT22;3661;53.288;10.458;2022-09-03T16:31:38;25.00;67.20
7240;DHT22;3661;53.288;10.458;2022-09-03T16:34:22;24.80;67.00
7240;DHT22;3661;53.288;10.458;2022-09-03T16:37:06;24.60;67.10
7240;DHT22;3661;53.288;10.458;2022-09-03T16:39:47;24.40;67.90
7240;DHT22;3661;53.288;10.458;2022-09-03T16:42:28;24.30;67.70
7240;DHT22;3661;53.288;10.458;2022-09-03T16:45:11;24.10;67.60
7240;DHT22;3661;53.288;10.458;2022-09-03T16:48:10;24.00;67.70
7240;DHT22;3661;53.288;10.458;2022-09-03T16:50:55;23.90;68.30
7240;DHT22;3661;53.288;10.458;2022-09-03T16:53:44;23.70;68.50
7240;DHT22;3661;53.288;10.458;2022-09-03T16:56:40;23.70;68.40
7240;DHT22;3661;53.288;10.458;2022-09-03T16:59:35;23.50;68.50
7240;DHT22;3661;53.288;10.458;2022-09-03T17:02:36;23.30;68.10
7240;DHT22;3661;53.288;10.458;2022-09-03T17:08:24;23.00;68.80
7240;DHT22;3661;53.288;10.458;2022-09-03T17:11:06;22.90;68.80
7240;DHT22;3661;53.288;10.458;2022-09-03T17:13:58;22.70;68.70
7240;DHT22;3661;53.288;10.458;2022-09-03T17:16:43;22.60;69.20